WARNING - Change wsUserSettings.php: $SITE["topfolder"] from : weather28m/ to: ./
Welkom op onze website -
Gegevens meteorieten voor 2019 onder zon aarde ruimte


Webcam zuid Meer informatie Webcam zuid


Webcam noord Meer informatie Webcam noord


Onweer radar Meer informatie blitzortung!


Regen radar Meer informatie rain snow radar


Bezoek onze andere website:

Template documentation
and downloads

Onze andere website


U vindt ons ook hier:

Het Weer Aktueel

UK Metoffice

European Weather Network

WeatherCloud

Weather Underground

Austria Weather Network

AWEKAS

Citizen Weather Observer Program (CWOP)

HAMweather, WeatherForYou, PWS Weather

Wetterpage 24

Roosendaal op internet

VWKWEB

RadioZuidWestFM



Het weer levert geen direct gevaar op.    Er zijn geen waarschuwingen afgegeven.

METAR rapporten vliegvelden

   
EHWO - Bergen op Zoom
Gewijzigd: 13-12-2019 06:25
Light Showers, Regen, Grotendeels bewolkt  
Light Showers, Regen, Grotendeels bewolkt  
   Wind: OZO 11.1 km/h
Wind: OZO 11.1 km/h
Temperatuur: 4°C
Voelt als: 1°C
Dauwpunt: 4°C
Vochtigheid: 100%
Barometer: 970 hPa
Bewolking: Grotendeels bewolkt
Zicht: meer dan 10 km
Bewolking: Licht bewolkt 400 ft,
Gedeeltelijk bewolkt 500 ft,
Grotendeels bewolkt 600 ft,
Gedeeltelijk bewolkt 1500 ft
EHWO 130525Z AUTO 11006KT 080V150 9999 -SHRA FEW004 SCT005 BKN006 SCT015CB 04/04 Q0970 YLO
EHWO - Woensdrecht
Gewijzigd: 13-12-2019 06:25
Light Showers, Regen, Grotendeels bewolkt  
Light Showers, Regen, Grotendeels bewolkt  
   Wind: OZO 11.1 km/h
Wind: OZO 11.1 km/h
Temperatuur: 4°C
Voelt als: 1°C
Dauwpunt: 4°C
Vochtigheid: 100%
Barometer: 970 hPa
Bewolking: Grotendeels bewolkt
Zicht: meer dan 10 km
Bewolking: Licht bewolkt 400 ft,
Gedeeltelijk bewolkt 500 ft,
Grotendeels bewolkt 600 ft,
Gedeeltelijk bewolkt 1500 ft
EHWO 130525Z AUTO 11006KT 080V150 9999 -SHRA FEW004 SCT005 BKN006 SCT015CB 04/04 Q0970 YLO
EHWO - Steenbergen
Gewijzigd: 13-12-2019 06:25
Light Showers, Regen, Grotendeels bewolkt  
Light Showers, Regen, Grotendeels bewolkt  
   Wind: OZO 11.1 km/h
Wind: OZO 11.1 km/h
Temperatuur: 4°C
Voelt als: 1°C
Dauwpunt: 4°C
Vochtigheid: 100%
Barometer: 970 hPa
Bewolking: Grotendeels bewolkt
Zicht: meer dan 10 km
Bewolking: Licht bewolkt 400 ft,
Gedeeltelijk bewolkt 500 ft,
Grotendeels bewolkt 600 ft,
Gedeeltelijk bewolkt 1500 ft
EHWO 130525Z AUTO 11006KT 080V150 9999 -SHRA FEW004 SCT005 BKN006 SCT015CB 04/04 Q0970 YLO
EHWO - Oud-Gastel
Gewijzigd: 13-12-2019 06:25
Light Showers, Regen, Grotendeels bewolkt  
Light Showers, Regen, Grotendeels bewolkt  
   Wind: OZO 11.1 km/h
Wind: OZO 11.1 km/h
Temperatuur: 4°C
Voelt als: 1°C
Dauwpunt: 4°C
Vochtigheid: 100%
Barometer: 970 hPa
Bewolking: Grotendeels bewolkt
Zicht: meer dan 10 km
Bewolking: Licht bewolkt 400 ft,
Gedeeltelijk bewolkt 500 ft,
Grotendeels bewolkt 600 ft,
Gedeeltelijk bewolkt 1500 ft
EHWO 130525Z AUTO 11006KT 080V150 9999 -SHRA FEW004 SCT005 BKN006 SCT015CB 04/04 Q0970 YLO
EHWO - Oudenbosch
Gewijzigd: 13-12-2019 06:25
Light Showers, Regen, Grotendeels bewolkt  
Light Showers, Regen, Grotendeels bewolkt  
   Wind: OZO 11.1 km/h
Wind: OZO 11.1 km/h
Temperatuur: 4°C
Voelt als: 1°C
Dauwpunt: 4°C
Vochtigheid: 100%
Barometer: 970 hPa
Bewolking: Grotendeels bewolkt
Zicht: meer dan 10 km
Bewolking: Licht bewolkt 400 ft,
Gedeeltelijk bewolkt 500 ft,
Grotendeels bewolkt 600 ft,
Gedeeltelijk bewolkt 1500 ft
EHWO 130525Z AUTO 11006KT 080V150 9999 -SHRA FEW004 SCT005 BKN006 SCT015CB 04/04 Q0970 YLO
EHWO - Rucphen
Gewijzigd: 13-12-2019 06:25
Light Showers, Regen, Grotendeels bewolkt  
Light Showers, Regen, Grotendeels bewolkt  
   Wind: OZO 11.1 km/h
Wind: OZO 11.1 km/h
Temperatuur: 4°C
Voelt als: 1°C
Dauwpunt: 4°C
Vochtigheid: 100%
Barometer: 970 hPa
Bewolking: Grotendeels bewolkt
Zicht: meer dan 10 km
Bewolking: Licht bewolkt 400 ft,
Gedeeltelijk bewolkt 500 ft,
Grotendeels bewolkt 600 ft,
Gedeeltelijk bewolkt 1500 ft
EHWO 130525Z AUTO 11006KT 080V150 9999 -SHRA FEW004 SCT005 BKN006 SCT015CB 04/04 Q0970 YLO
EHWO - Bergen op Zoom
Gewijzigd: 13-12-2019 06:25
Light Showers, Regen, Grotendeels bewolkt  
Light Showers, Regen, Grotendeels bewolkt  
   Wind: OZO 11.1 km/h
Wind: OZO 11.1 km/h
Temperatuur: 4°C
Voelt als: 1°C
Dauwpunt: 4°C
Vochtigheid: 100%
Barometer: 970 hPa
Bewolking: Grotendeels bewolkt
Zicht: meer dan 10 km
Bewolking: Licht bewolkt 400 ft,
Gedeeltelijk bewolkt 500 ft,
Grotendeels bewolkt 600 ft,
Gedeeltelijk bewolkt 1500 ft
EHWO 130525Z AUTO 11006KT 080V150 9999 -SHRA FEW004 SCT005 BKN006 SCT015CB 04/04 Q0970 YLO
EHWO - Fijnaart
Gewijzigd: 13-12-2019 06:25
Light Showers, Regen, Grotendeels bewolkt  
Light Showers, Regen, Grotendeels bewolkt  
   Wind: OZO 11.1 km/h
Wind: OZO 11.1 km/h
Temperatuur: 4°C
Voelt als: 1°C
Dauwpunt: 4°C
Vochtigheid: 100%
Barometer: 970 hPa
Bewolking: Grotendeels bewolkt
Zicht: meer dan 10 km
Bewolking: Licht bewolkt 400 ft,
Gedeeltelijk bewolkt 500 ft,
Grotendeels bewolkt 600 ft,
Gedeeltelijk bewolkt 1500 ft
EHWO 130525Z AUTO 11006KT 080V150 9999 -SHRA FEW004 SCT005 BKN006 SCT015CB 04/04 Q0970 YLO
EHWO - Ossendrecht
Gewijzigd: 13-12-2019 06:25
Light Showers, Regen, Grotendeels bewolkt  
Light Showers, Regen, Grotendeels bewolkt  
   Wind: OZO 11.1 km/h
Wind: OZO 11.1 km/h
Temperatuur: 4°C
Voelt als: 1°C
Dauwpunt: 4°C
Vochtigheid: 100%
Barometer: 970 hPa
Bewolking: Grotendeels bewolkt
Zicht: meer dan 10 km
Bewolking: Licht bewolkt 400 ft,
Gedeeltelijk bewolkt 500 ft,
Grotendeels bewolkt 600 ft,
Gedeeltelijk bewolkt 1500 ft
EHWO 130525Z AUTO 11006KT 080V150 9999 -SHRA FEW004 SCT005 BKN006 SCT015CB 04/04 Q0970 YLO

Script ontwikkeld door  Saratoga-weather.org Aangepast voor de template door  Weerstation Leuven

Apparatuur in gebruik:

Weerstation
Davis VP2

Weerprogramma
Meteobridge

Weercomputer
Shuttle

Webleverancier
WeservIT

Davis VP2

Meteobridge

Shuttle

WeservIT